Time;durP1;ratioP1;P1;durP2;ratioP2;P2;SDS_P1;SDS_P2;PMS_P1;PMS_P2;Temp;Humidity;BMP_temperature;BMP_pressure;BME280_temperature;BME280_humidity;BME280_pressure;Samples;Min_cycle;Max_cycle;Signal;HPM_P1;HPM_P2
2023/01/04 00:01:04;;;;;;;9.93;4.40;;;3.30;99.90;;;;;;5057612;28;20028;-78
2023/01/04 00:03:33;;;;;;;5.20;4.45;;;3.30;99.90;;;;;;5053783;28;20021;-79
2023/01/04 00:06:00;;;;;;;6.97;4.05;;;3.20;99.90;;;;;;5070082;28;20653;-80
2023/01/04 00:08:27;;;;;;;6.25;4.70;;;3.10;99.90;;;;;;5067417;28;20037;-79
2023/01/04 00:10:52;;;;;;;7.50;4.28;;;3.10;99.90;;;;;;5072259;28;20047;-79
2023/01/04 00:13:18;;;;;;;5.65;4.60;;;3.00;99.90;;;;;;5034561;28;20025;-78
2023/01/04 00:15:44;;;;;;;7.13;4.97;;;3.00;99.90;;;;;;5065693;28;20039;-79
2023/01/04 00:18:10;;;;;;;5.60;4.38;;;3.00;99.90;;;;;;5051083;28;20029;-78
2023/01/04 00:20:36;;;;;;;7.07;4.57;;;2.90;99.90;;;;;;5056215;28;20035;-78
2023/01/04 00:23:02;;;;;;;6.05;4.60;;;2.90;99.90;;;;;;5069737;28;20025;-78
2023/01/04 00:25:28;;;;;;;5.75;4.25;;;2.90;99.90;;;;;;5070229;28;20032;-79
2023/01/04 00:27:53;;;;;;;4.97;4.13;;;2.90;99.90;;;;;;5035275;28;20029;-79
2023/01/04 00:30:19;;;;;;;10.98;4.75;;;2.90;99.90;;;;;;5033615;28;20033;-79
2023/01/04 00:32:45;;;;;;;8.32;4.50;;;2.90;99.90;;;;;;5048633;28;20108;-78
2023/01/04 00:35:11;;;;;;;6.32;4.43;;;2.90;99.90;;;;;;5036450;28;20048;-79
2023/01/04 00:37:36;;;;;;;4.28;3.78;;;2.80;99.90;;;;;;5054510;28;20082;-79
2023/01/04 00:40:03;;;;;;;5.07;4.10;;;2.70;99.90;;;;;;5033664;28;20100;-80
2023/01/04 00:42:29;;;;;;;5.20;4.10;;;2.70;99.90;;;;;;5048841;28;20029;-80
2023/01/04 00:44:55;;;;;;;5.13;3.92;;;2.60;99.90;;;;;;5037206;28;20046;-80
2023/01/04 00:47:21;;;;;;;6.38;4.43;;;2.60;99.90;;;;;;5038147;28;20112;-79
2023/01/04 00:49:47;;;;;;;6.40;4.35;;;2.60;99.90;;;;;;5047844;28;20081;-79
2023/01/04 00:52:13;;;;;;;5.30;4.13;;;2.60;99.90;;;;;;5047494;28;20033;-79
2023/01/04 00:54:39;;;;;;;6.07;4.95;;;2.50;99.90;;;;;;5064089;28;20111;-79
2023/01/04 00:57:06;;;;;;;7.55;5.43;;;2.50;99.90;;;;;;5056269;28;20461;-79
2023/01/04 00:59:32;;;;;;;9.95;6.20;;;2.50;99.90;;;;;;5039622;28;20389;-80
2023/01/04 01:01:58;;;;;;;10.88;6.15;;;2.60;99.90;;;;;;5048014;28;20046;-79
2023/01/04 01:04:24;;;;;;;8.05;6.03;;;2.50;99.90;;;;;;5045746;28;20040;-80
2023/01/04 01:06:51;;;;;;;9.02;6.13;;;2.50;99.90;;;;;;5029988;28;20558;-76
2023/01/04 01:09:18;;;;;;;10.80;6.45;;;2.50;99.90;;;;;;5051707;28;20035;-80
2023/01/04 01:11:44;;;;;;;9.15;6.07;;;2.50;99.90;;;;;;5062571;28;20033;-80
2023/01/04 01:14:18;;;;;;;10.02;6.05;;;2.60;99.90;;;;;;5033535;28;20028;-80
2023/01/04 01:16:45;;;;;;;10.48;6.18;;;2.60;99.90;;;;;;5065914;28;20098;-80
2023/01/04 01:19:11;;;;;;;9.98;6.20;;;2.60;99.90;;;;;;5063774;28;20033;-81
2023/01/04 01:21:37;;;;;;;9.55;6.47;;;2.60;99.90;;;;;;5062324;28;20094;-79
2023/01/04 01:24:05;;;;;;;8.60;6.32;;;2.60;99.90;;;;;;5056397;28;20385;-79
2023/01/04 01:26:30;;;;;;;6.70;5.50;;;2.50;99.90;;;;;;5063646;28;20028;-80
2023/01/04 01:28:57;;;;;;;8.00;5.97;;;2.60;99.90;;;;;;5044817;28;20048;-80
2023/01/04 01:31:25;;;;;;;7.95;5.90;;;2.50;99.90;;;;;;5051695;28;20050;-80
2023/01/04 01:33:53;;;;;;;9.05;6.00;;;2.50;99.90;;;;;;5048910;28;20033;-80
2023/01/04 01:36:21;;;;;;;8.57;5.80;;;2.40;99.90;;;;;;5063041;28;20394;-80
2023/01/04 01:38:47;;;;;;;8.88;6.07;;;2.30;99.90;;;;;;5058299;28;20028;-80
2023/01/04 01:41:22;;;;;;;8.80;6.30;;;2.30;99.90;;;;;;5063653;28;20067;-80
2023/01/04 01:43:57;;;;;;;9.85;6.13;;;2.20;99.90;;;;;;5043688;28;20044;-81
2023/01/04 01:46:29;;;;;;;9.52;6.50;;;2.20;99.90;;;;;;5067248;28;20086;-80
2023/01/04 01:49:11;;;;;;;7.35;5.50;;;2.20;99.90;;;;;;5069811;28;20611;-78
2023/01/04 01:51:38;;;;;;;7.57;5.47;;;2.10;99.90;;;;;;5047956;28;20036;-80
2023/01/04 01:54:10;;;;;;;8.25;6.38;;;2.10;99.90;;;;;;5062801;28;20533;-79
2023/01/04 01:56:38;;;;;;;8.40;6.75;;;2.00;99.90;;;;;;5051945;28;20023;-77
2023/01/04 01:59:06;;;;;;;9.43;6.85;;;2.00;99.90;;;;;;5062381;28;20032;-80
2023/01/04 02:01:32;;;;;;;9.77;7.18;;;2.00;99.90;;;;;;5032092;28;20040;-80
2023/01/04 02:03:58;;;;;;;10.90;6.55;;;1.90;99.90;;;;;;5046106;28;20039;-78
2023/01/04 02:06:29;;;;;;;9.63;6.68;;;1.90;99.90;;;;;;5031711;28;20036;-80
2023/01/04 02:08:56;;;;;;;10.23;7.20;;;1.80;99.90;;;;;;5060842;28;20047;-80
2023/01/04 02:11:22;;;;;;;12.80;7.28;;;1.80;99.90;;;;;;5014727;28;20039;-79
2023/01/04 02:16:55;;;;;;;13.32;7.68;;;1.80;99.90;;;;;;5051785;28;20032;-80
2023/01/04 02:19:50;;;;;;;12.48;8.15;;;1.80;99.90;;;;;;5062783;28;20072;-79
2023/01/04 02:22:19;;;;;;;10.65;7.00;;;1.80;99.90;;;;;;5062031;28;20024;-79
2023/01/04 02:25:00;;;;;;;13.35;7.72;;;1.80;99.90;;;;;;5068141;28;20025;-80
2023/01/04 02:27:47;;;;;;;15.20;8.15;;;1.70;99.90;;;;;;5065005;28;20042;-80
2023/01/04 02:30:19;;;;;;;13.05;8.13;;;1.70;99.90;;;;;;5061085;28;20039;-80
2023/01/04 02:33:09;;;;;;;12.80;8.35;;;1.70;99.90;;;;;;5064406;28;20052;-79
2023/01/04 02:35:45;;;;;;;14.10;8.30;;;1.70;99.90;;;;;;5058677;28;20021;-80
2023/01/04 02:38:37;;;;;;;15.27;8.18;;;1.70;99.90;;;;;;5058476;28;20013;-79
2023/01/04 02:41:33;;;;;;;12.27;8.15;;;1.70;99.90;;;;;;5029093;28;20082;-78
2023/01/04 02:47:07;;;;;;;14.07;8.95;;;1.70;99.90;;;;;;5051679;28;20067;-78
2023/01/04 02:52:19;;;;;;;15.77;9.13;;;1.70;99.90;;;;;;5062363;28;20033;-79
2023/01/04 02:54:47;;;;;;;16.55;10.07;;;1.70;99.90;;;;;;5066143;28;20037;-80
2023/01/04 02:57:52;;;;;;;16.48;9.65;;;1.70;99.90;;;;;;5068101;28;20020;-79
2023/01/04 03:00:21;;;;;;;14.60;9.15;;;1.70;99.90;;;;;;5048962;28;20039;-78
2023/01/04 03:08:39;;;;;;;15.25;9.95;;;1.70;99.90;;;;;;5070801;28;20405;-79
2023/01/04 03:14:10;;;;;;;17.15;9.70;;;1.70;99.90;;;;;;5068913;28;20112;-79
2023/01/04 03:16:38;;;;;;;18.95;10.82;;;1.70;99.90;;;;;;5049732;28;20447;-80
2023/01/04 03:19:08;;;;;;;22.65;12.30;;;1.70;99.90;;;;;;5048834;28;20092;-79
2023/01/04 03:21:43;;;;;;;25.35;12.77;;;1.80;99.90;;;;;;5068045;28;20029;-79
2023/01/04 03:36:18;;;;;;;23.23;12.13;;;1.80;99.90;;;;;;5056445;28;20036;-80
2023/01/04 03:50:44;;;;;;;17.02;10.30;;;1.70;99.90;;;;;;5071519;28;20032;-81
2023/01/04 03:53:12;;;;;;;19.50;11.05;;;1.60;99.90;;;;;;5046006;28;20029;-81
2023/01/04 03:55:40;;;;;;;18.77;10.32;;;1.60;99.90;;;;;;5050056;28;20025;-79
2023/01/04 03:58:07;;;;;;;17.40;10.18;;;1.60;99.90;;;;;;5037039;28;20063;-79
2023/01/04 04:00:33;;;;;;;20.00;10.85;;;1.50;99.90;;;;;;5051997;28;20028;-79
2023/01/04 04:03:06;;;;;;;18.55;10.35;;;1.50;99.90;;;;;;5030496;28;20058;-79
2023/01/04 04:08:28;;;;;;;16.88;9.95;;;1.40;99.90;;;;;;5046027;28;20358;-80
2023/01/04 04:10:55;;;;;;;15.50;9.23;;;1.30;99.90;;;;;;5067635;28;20492;-79
2023/01/04 04:13:21;;;;;;;15.32;9.48;;;1.20;99.90;;;;;;5048696;28;20048;-78
2023/01/04 04:15:47;;;;;;;15.02;8.77;;;1.20;99.90;;;;;;5053980;28;20542;-80
2023/01/04 04:18:13;;;;;;;18.55;9.68;;;1.10;99.90;;;;;;5051506;28;20044;-79
2023/01/04 04:20:39;;;;;;;18.58;10.27;;;1.10;99.90;;;;;;5067301;28;20028;-80
2023/01/04 04:23:05;;;;;;;17.83;10.80;;;1.10;99.90;;;;;;5053184;28;20093;-79
2023/01/04 04:25:32;;;;;;;18.38;10.35;;;1.00;99.90;;;;;;5050351;28;20036;-78
2023/01/04 04:27:57;;;;;;;15.55;9.80;;;1.10;99.90;;;;;;5017264;28;20437;-78
2023/01/04 04:30:23;;;;;;;20.42;10.40;;;1.10;99.90;;;;;;5049954;28;20032;-79
2023/01/04 04:32:49;;;;;;;16.23;10.35;;;1.10;99.90;;;;;;5065714;28;20032;-80
2023/01/04 04:35:15;;;;;;;17.42;9.45;;;1.10;99.90;;;;;;5050517;28;20039;-79
2023/01/04 04:37:40;;;;;;;17.65;9.95;;;1.10;99.90;;;;;;5048173;28;20033;-79
2023/01/04 04:41:36;;;;;;;16.60;9.55;;;1.00;99.90;;;;;;5032494;28;20021;-79
2023/01/04 04:42:53;;;;;;;17.85;9.57;;;1.10;99.90;;;;;;5050490;28;20029;-79
2023/01/04 04:45:18;;;;;;;16.85;9.85;;;1.10;99.90;;;;;;5060971;28;20400;-79
2023/01/04 04:47:44;;;;;;;17.17;10.02;;;1.10;99.90;;;;;;5066463;28;20053;-79
2023/01/04 04:50:10;;;;;;;17.48;9.95;;;1.10;99.90;;;;;;5050744;28;20024;-78
2023/01/04 04:52:36;;;;;;;16.58;9.77;;;1.10;99.90;;;;;;5047436;28;20035;-78
2023/01/04 04:55:02;;;;;;;16.83;8.80;;;1.10;99.90;;;;;;5069774;28;20035;-79
2023/01/04 04:57:28;;;;;;;17.92;10.60;;;1.10;99.90;;;;;;5066545;28;20036;-78
2023/01/04 04:59:54;;;;;;;16.73;9.32;;;1.10;99.90;;;;;;5036928;28;20036;-78
2023/01/04 05:02:20;;;;;;;17.58;10.13;;;1.10;99.90;;;;;;5048369;28;20048;-79
2023/01/04 05:04:46;;;;;;;15.70;9.40;;;1.10;99.90;;;;;;5050917;28;20029;-81
2023/01/04 05:07:11;;;;;;;15.98;9.65;;;1.00;99.90;;;;;;5035481;28;20035;-80
2023/01/04 05:09:37;;;;;;;17.65;9.93;;;1.10;99.90;;;;;;5065065;28;20029;-80
2023/01/04 05:14:48;;;;;;;17.65;10.20;;;1.10;99.90;;;;;;5068246;28;20032;-81
2023/01/04 05:17:13;;;;;;;21.40;10.75;;;1.10;99.90;;;;;;5053722;28;20073;-81
2023/01/04 05:19:39;;;;;;;20.60;10.50;;;1.10;99.90;;;;;;5072332;28;20033;-80
2023/01/04 05:22:06;;;;;;;19.80;10.68;;;1.20;99.90;;;;;;5050038;28;20059;-80
2023/01/04 05:24:31;;;;;;;21.17;10.80;;;1.30;99.90;;;;;;5018321;28;20456;-79
2023/01/04 05:26:57;;;;;;;19.23;10.35;;;1.40;99.90;;;;;;5036028;28;20190;-79
2023/01/04 05:32:07;;;;;;;19.85;10.50;;;1.60;99.90;;;;;;5044687;28;20032;-80
2023/01/04 05:34:33;;;;;;;22.45;10.85;;;1.70;99.90;;;;;;5050737;28;20031;-80
2023/01/04 05:36:59;;;;;;;22.23;11.27;;;1.80;99.90;;;;;;5035882;28;20111;-79
2023/01/04 05:39:25;;;;;;;21.83;10.70;;;1.90;99.90;;;;;;5041403;28;20046;-79
2023/01/04 05:44:36;;;;;;;19.95;10.20;;;2.10;99.90;;;;;;5044176;28;20188;-79
2023/01/04 05:47:02;;;;;;;18.48;10.32;;;2.20;99.90;;;;;;5048312;28;20570;-80
2023/01/04 05:49:27;;;;;;;18.88;10.27;;;2.30;99.90;;;;;;5011214;28;20028;-78
2023/01/04 05:51:53;;;;;;;17.08;9.27;;;2.40;99.90;;;;;;5022860;28;20040;-79
2023/01/04 05:54:19;;;;;;;17.40;10.30;;;2.40;99.90;;;;;;5045955;28;20551;-79
2023/01/04 05:56:46;;;;;;;16.77;9.13;;;2.40;99.90;;;;;;5068419;28;20493;-79
2023/01/04 05:59:12;;;;;;;16.35;9.23;;;2.50;99.90;;;;;;5048880;28;20029;-78
2023/01/04 06:01:37;;;;;;;14.95;9.00;;;2.50;99.90;;;;;;5032196;28;20551;-78
2023/01/04 06:04:03;;;;;;;14.80;8.55;;;2.50;99.90;;;;;;5048870;28;20032;-79
2023/01/04 06:06:29;;;;;;;16.00;8.77;;;2.50;99.90;;;;;;5055841;28;20412;-79
2023/01/04 06:08:55;;;;;;;14.68;8.57;;;2.60;99.90;;;;;;5036971;28;20039;-80
2023/01/04 06:11:21;;;;;;;17.23;8.77;;;2.60;99.90;;;;;;5036243;28;20100;-78
2023/01/04 06:13:46;;;;;;;15.57;8.93;;;2.60;99.90;;;;;;5066423;28;20028;-80
2023/01/04 06:16:12;;;;;;;13.10;8.45;;;2.50;99.90;;;;;;5015355;28;20070;-78
2023/01/04 06:18:38;;;;;;;14.25;8.63;;;2.60;99.90;;;;;;5038671;28;20056;-78
2023/01/04 06:21:04;;;;;;;14.13;8.85;;;2.60;99.90;;;;;;5048850;28;20528;-78
2023/01/04 06:23:30;;;;;;;15.23;8.52;;;2.60;99.90;;;;;;5049535;28;20029;-80
2023/01/04 06:25:56;;;;;;;12.63;7.40;;;2.60;99.90;;;;;;5039898;28;20045;-80
2023/01/04 06:28:22;;;;;;;13.23;8.20;;;2.60;99.90;;;;;;5046868;28;20175;-78
2023/01/04 06:30:48;;;;;;;14.90;7.93;;;2.70;99.90;;;;;;5032713;28;20028;-78
2023/01/04 06:33:14;;;;;;;13.93;7.85;;;2.70;99.90;;;;;;5037122;28;20039;-80
2023/01/04 06:35:40;;;;;;;11.88;7.20;;;2.70;99.90;;;;;;5041246;28;20103;-79
2023/01/04 06:38:05;;;;;;;13.02;8.23;;;2.70;99.90;;;;;;5028481;28;20032;-80
2023/01/04 06:40:31;;;;;;;13.98;7.63;;;2.80;99.90;;;;;;5057997;28;20035;-79
2023/01/04 06:42:57;;;;;;;13.18;8.27;;;2.80;99.90;;;;;;5067345;28;20051;-79
2023/01/04 06:45:23;;;;;;;13.30;7.85;;;2.80;99.90;;;;;;5035458;28;20060;-80
2023/01/04 06:47:49;;;;;;;11.30;7.30;;;2.70;99.90;;;;;;5066391;28;20449;-80
2023/01/04 06:50:15;;;;;;;12.90;7.65;;;2.80;99.90;;;;;;5051475;28;20048;-79
2023/01/04 06:52:42;;;;;;;13.55;7.55;;;2.80;99.90;;;;;;5041656;28;20389;-78
2023/01/04 06:55:08;;;;;;;12.63;7.30;;;2.80;99.90;;;;;;5050177;28;20033;-78
2023/01/04 06:57:34;;;;;;;12.35;7.35;;;2.80;99.90;;;;;;5057260;28;20025;-79
2023/01/04 07:00:00;;;;;;;12.43;7.13;;;2.80;99.90;;;;;;5056668;28;20055;-80
2023/01/04 07:02:25;;;;;;;13.00;7.57;;;2.80;99.90;;;;;;5053850;28;20158;-79
2023/01/04 07:04:51;;;;;;;11.13;6.95;;;2.80;99.90;;;;;;5055551;28;20032;-79
2023/01/04 07:07:17;;;;;;;14.05;8.15;;;2.90;99.90;;;;;;5029704;28;20059;-78
2023/01/04 07:09:43;;;;;;;12.10;7.38;;;2.90;99.90;;;;;;5063991;28;20127;-80
2023/01/04 07:12:09;;;;;;;12.20;7.50;;;3.00;99.90;;;;;;5058834;28;20519;-79
2023/01/04 07:14:35;;;;;;;12.73;7.90;;;3.00;99.90;;;;;;5025650;28;20029;-79
2023/01/04 07:17:01;;;;;;;13.52;8.18;;;3.00;99.90;;;;;;5040885;28;20029;-79
2023/01/04 07:19:27;;;;;;;12.43;7.55;;;3.00;99.90;;;;;;5039879;28;20624;-79
2023/01/04 07:21:54;;;;;;;11.48;7.07;;;3.00;99.90;;;;;;5071899;28;20042;-78
2023/01/04 07:24:20;;;;;;;13.25;7.05;;;3.00;99.90;;;;;;5068824;28;20032;-80
2023/01/04 07:26:46;;;;;;;10.23;7.28;;;3.10;99.90;;;;;;5052524;28;20036;-80
2023/01/04 07:29:13;;;;;;;11.02;6.88;;;3.10;99.90;;;;;;5073287;28;20370;-79
2023/01/04 07:31:39;;;;;;;9.13;6.13;;;3.10;99.90;;;;;;5035285;28;20116;-80
2023/01/04 07:34:05;;;;;;;14.82;7.22;;;3.20;99.90;;;;;;5029253;28;20430;-79
2023/01/04 07:36:31;;;;;;;11.07;6.88;;;3.20;99.90;;;;;;5055235;28;20067;-78
2023/01/04 07:39:00;;;;;;;12.18;7.47;;;3.30;99.90;;;;;;5056883;28;20036;-80
2023/01/04 07:41:26;;;;;;;13.20;8.02;;;3.30;99.90;;;;;;5053700;28;20493;-78
2023/01/04 07:43:52;;;;;;;12.38;7.18;;;3.30;99.90;;;;;;5072059;28;20025;-79
2023/01/04 07:46:20;;;;;;;11.63;6.47;;;3.30;99.90;;;;;;5042289;28;20036;-79
2023/01/04 07:48:46;;;;;;;9.85;6.60;;;3.40;99.90;;;;;;5025870;28;20037;-80
2023/01/04 07:51:12;;;;;;;10.40;6.80;;;3.40;99.90;;;;;;5056853;28;20041;-79
2023/01/04 07:53:38;;;;;;;11.00;6.57;;;3.40;99.90;;;;;;5052132;28;20052;-79
2023/01/04 07:56:04;;;;;;;10.45;6.20;;;3.40;99.90;;;;;;5042643;28;20033;-80
2023/01/04 07:58:31;;;;;;;11.25;6.97;;;3.50;99.90;;;;;;5067231;28;20029;-79
2023/01/04 08:01:08;;;;;;;12.63;6.90;;;3.50;99.90;;;;;;5042139;28;20151;-79
2023/01/04 08:03:34;;;;;;;10.77;6.60;;;3.60;99.90;;;;;;5066447;28;20116;-80
2023/01/04 08:06:05;;;;;;;10.75;6.97;;;3.70;99.90;;;;;;5036917;28;20513;-78
2023/01/04 08:08:31;;;;;;;10.82;6.47;;;3.80;99.90;;;;;;5038568;28;20032;-78
2023/01/04 08:11:05;;;;;;;12.82;7.20;;;3.80;99.90;;;;;;5047957;28;20613;-80
2023/01/04 08:13:31;;;;;;;11.75;6.43;;;3.90;99.90;;;;;;5064159;28;20477;-80
2023/01/04 08:15:57;;;;;;;12.23;7.05;;;3.90;99.90;;;;;;5036409;28;20074;-80
2023/01/04 08:18:23;;;;;;;10.73;6.32;;;3.90;99.90;;;;;;5040107;28;20045;-80
2023/01/04 08:20:49;;;;;;;11.98;7.28;;;3.90;99.90;;;;;;5071696;28;20034;-79
2023/01/04 08:23:15;;;;;;;13.98;7.32;;;4.00;99.90;;;;;;5068880;28;20127;-79
2023/01/04 08:25:41;;;;;;;13.25;7.32;;;4.00;99.90;;;;;;5037028;28;20558;-79
2023/01/04 08:28:07;;;;;;;12.80;6.30;;;4.10;99.90;;;;;;5068516;28;20029;-79
2023/01/04 08:30:32;;;;;;;13.10;7.43;;;4.10;99.90;;;;;;5038369;28;20036;-80
2023/01/04 08:32:58;;;;;;;12.13;6.43;;;4.20;99.90;;;;;;5045483;28;20421;-80
2023/01/04 08:35:24;;;;;;;13.65;7.20;;;4.20;99.90;;;;;;5024210;28;20496;-79
2023/01/04 08:37:50;;;;;;;14.02;7.18;;;4.20;99.90;;;;;;5055018;28;20067;-78
2023/01/04 08:40:17;;;;;;;13.45;6.68;;;4.30;99.90;;;;;;5056347;28;20034;-80
2023/01/04 08:42:42;;;;;;;12.98;6.57;;;4.30;99.90;;;;;;5053085;28;20025;-80
2023/01/04 08:45:08;;;;;;;11.00;6.53;;;4.30;99.90;;;;;;5072578;28;20571;-79
2023/01/04 08:47:34;;;;;;;10.77;5.72;;;4.40;99.90;;;;;;5038120;28;20055;-79
2023/01/04 08:50:00;;;;;;;11.95;6.30;;;4.40;99.90;;;;;;5048792;28;20052;-79
2023/01/04 08:52:26;;;;;;;11.07;5.47;;;4.40;99.90;;;;;;5050017;28;20082;-79
2023/01/04 08:54:53;;;;;;;9.85;5.90;;;4.50;99.90;;;;;;5069359;28;20056;-79
2023/01/04 08:57:20;;;;;;;11.52;5.75;;;4.40;99.90;;;;;;5065918;28;20053;-79
2023/01/04 08:59:47;;;;;;;9.32;5.38;;;4.50;99.90;;;;;;5068973;28;20481;-79
2023/01/04 09:02:19;;;;;;;10.27;5.57;;;4.50;99.90;;;;;;5023623;28;20036;-79
2023/01/04 09:04:45;;;;;;;9.52;5.85;;;4.60;99.90;;;;;;5067004;28;20411;-78
2023/01/04 09:07:11;;;;;;;12.63;5.03;;;4.60;99.90;;;;;;5070563;28;20042;-79
2023/01/04 09:09:37;;;;;;;9.25;4.78;;;4.70;99.90;;;;;;5054197;28;20033;-79
2023/01/04 09:12:03;;;;;;;7.72;4.78;;;4.70;99.90;;;;;;5056473;28;20032;-78
2023/01/04 09:14:29;;;;;;;7.38;4.72;;;4.70;99.90;;;;;;5051509;28;20111;-79
2023/01/04 09:16:55;;;;;;;7.53;4.68;;;4.70;99.90;;;;;;5056312;28;20064;-79
2023/01/04 09:19:20;;;;;;;8.80;4.70;;;4.70;99.90;;;;;;5044986;28;20119;-79
2023/01/04 09:21:46;;;;;;;6.90;4.13;;;4.70;99.90;;;;;;5072837;28;20380;-79
2023/01/04 09:24:13;;;;;;;7.28;4.22;;;4.70;99.90;;;;;;5046071;28;20036;-79
2023/01/04 09:26:39;;;;;;;8.68;4.72;;;4.70;99.90;;;;;;5040191;28;20056;-78
2023/01/04 09:29:05;;;;;;;8.48;4.72;;;4.70;99.90;;;;;;5058124;28;20031;-79
2023/01/04 09:31:31;;;;;;;8.52;4.65;;;4.70;99.90;;;;;;5053066;28;20058;-79
2023/01/04 09:33:58;;;;;;;7.80;4.63;;;4.70;99.90;;;;;;5075056;28;20024;-79
2023/01/04 09:36:24;;;;;;;6.32;4.05;;;4.80;99.90;;;;;;5059981;28;20102;-79
2023/01/04 09:38:53;;;;;;;6.22;3.85;;;4.90;99.90;;;;;;5072200;28;20119;-79
2023/01/04 09:41:27;;;;;;;6.75;4.13;;;5.00;99.90;;;;;;5055256;28;20025;-79
2023/01/04 09:44:01;;;;;;;6.93;3.58;;;5.00;99.90;;;;;;5072531;28;20093;-79
2023/01/04 09:46:46;;;;;;;6.10;3.75;;;5.10;99.90;;;;;;5049643;28;20028;-80
2023/01/04 09:49:30;;;;;;;6.63;3.42;;;5.20;99.90;;;;;;5052209;28;20033;-79
2023/01/04 09:52:16;;;;;;;6.10;3.72;;;5.20;99.90;;;;;;5054037;28;20025;-79
2023/01/04 09:54:59;;;;;;;7.55;3.65;;;5.20;99.90;;;;;;5056450;28;20047;-79
2023/01/04 09:57:31;;;;;;;5.80;3.28;;;5.20;99.90;;;;;;5049243;28;20032;-78
2023/01/04 10:00:18;;;;;;;4.53;3.28;;;5.30;99.90;;;;;;5069131;28;20029;-78
2023/01/04 10:03:01;;;;;;;4.00;2.75;;;5.30;99.90;;;;;;5065996;28;20031;-79
2023/01/04 10:05:31;;;;;;;4.68;3.00;;;5.30;99.90;;;;;;5052044;28;20048;-78
2023/01/04 10:07:57;;;;;;;5.65;3.33;;;5.40;99.90;;;;;;5058041;28;20050;-80
2023/01/04 10:10:41;;;;;;;4.43;3.05;;;5.40;99.90;;;;;;5070333;28;20614;-80
2023/01/04 10:13:09;;;;;;;5.65;2.80;;;5.50;99.90;;;;;;5068013;28;20024;-79
2023/01/04 10:15:47;;;;;;;4.47;2.70;;;5.50;99.90;;;;;;5069377;28;20108;-78
2023/01/04 10:18:26;;;;;;;3.97;2.58;;;5.50;99.90;;;;;;5056462;28;20026;-78
2023/01/04 10:20:55;;;;;;;5.65;2.85;;;5.60;99.90;;;;;;5054487;28;20452;-79
2023/01/04 10:23:33;;;;;;;3.65;2.50;;;5.60;99.90;;;;;;5052528;28;20094;-78
2023/01/04 10:26:23;;;;;;;4.57;2.60;;;5.70;99.90;;;;;;5053618;28;20094;-80
2023/01/04 10:29:06;;;;;;;4.80;2.65;;;5.70;99.90;;;;;;5070042;28;20037;-79
2023/01/04 10:31:41;;;;;;;3.78;2.38;;;5.70;99.90;;;;;;5069659;28;20086;-79
2023/01/04 10:34:31;;;;;;;4.78;2.67;;;5.70;99.90;;;;;;5068532;28;20024;-79
2023/01/04 10:37:03;;;;;;;3.90;2.70;;;5.70;99.90;;;;;;5040463;28;20064;-79
2023/01/04 10:39:32;;;;;;;3.75;2.78;;;5.70;99.90;;;;;;5054976;28;20046;-79
2023/01/04 10:42:12;;;;;;;4.97;2.90;;;5.70;99.90;;;;;;5049573;28;20552;-79
2023/01/04 10:45:12;;;;;;;4.72;2.50;;;5.80;99.90;;;;;;5052043;28;20032;-80
2023/01/04 10:47:54;;;;;;;3.42;2.67;;;5.80;99.90;;;;;;5051510;28;20488;-80
2023/01/04 10:50:26;;;;;;;4.53;2.55;;;5.80;99.90;;;;;;5048383;28;20024;-79
2023/01/04 10:53:06;;;;;;;4.00;2.30;;;5.80;99.90;;;;;;5049554;28;20042;-78
2023/01/04 10:55:52;;;;;;;4.13;2.10;;;5.80;99.90;;;;;;5031828;28;20505;-78
2023/01/04 10:58:25;;;;;;;4.10;2.42;;;5.90;99.90;;;;;;5073802;28;20088;-79
2023/01/04 11:01:01;;;;;;;3.25;2.20;;;5.90;99.90;;;;;;5038246;28;20039;-78
2023/01/04 11:03:35;;;;;;;7.00;2.15;;;5.90;99.90;;;;;;5071858;28;20115;-79
2023/01/04 11:06:20;;;;;;;4.03;2.30;;;6.00;99.90;;;;;;5070217;28;20085;-78
2023/01/04 11:08:52;;;;;;;2.38;2.10;;;6.00;99.90;;;;;;5073866;28;20028;-78
2023/01/04 11:11:28;;;;;;;4.00;1.90;;;6.00;99.90;;;;;;5053302;28;20037;-78
2023/01/04 11:13:55;;;;;;;2.78;1.90;;;6.00;99.90;;;;;;5073655;28;20520;-79
2023/01/04 11:16:21;;;;;;;2.00;1.77;;;5.90;99.90;;;;;;5042016;28;20060;-78
2023/01/04 11:18:49;;;;;;;3.92;1.73;;;5.90;99.90;;;;;;5055289;28;20028;-78
2023/01/04 11:21:19;;;;;;;3.08;1.55;;;5.90;99.90;;;;;;5040277;28;20036;-78
2023/01/04 11:23:45;;;;;;;2.05;1.38;;;5.90;99.90;;;;;;5073760;28;20033;-79
2023/01/04 11:26:18;;;;;;;3.28;1.70;;;5.80;99.90;;;;;;5058300;28;20705;-78
2023/01/04 11:28:52;;;;;;;2.35;1.77;;;5.80;99.90;;;;;;5070522;28;20131;-79
2023/01/04 11:31:31;;;;;;;2.47;1.30;;;5.70;99.90;;;;;;5052465;28;20028;-79
2023/01/04 11:34:02;;;;;;;2.38;1.73;;;5.70;99.90;;;;;;5070406;28;20499;-79
2023/01/04 11:36:46;;;;;;;3.30;1.52;;;5.70;99.90;;;;;;5048343;28;20035;-78
2023/01/04 11:39:31;;;;;;;1.85;1.38;;;5.70;99.90;;;;;;5081955;28;20039;-78
2023/01/04 11:42:04;;;;;;;2.72;1.42;;;5.70;99.90;;;;;;5039489;28;20033;-79
2023/01/04 11:44:32;;;;;;;2.45;1.80;;;5.70;99.90;;;;;;5060168;28;20514;-78
2023/01/04 11:47:07;;;;;;;2.58;1.77;;;5.70;99.90;;;;;;5063165;28;20055;-79
2023/01/04 11:49:35;;;;;;;2.72;1.30;;;5.70;99.90;;;;;;5073441;28;20051;-78
2023/01/04 11:52:01;;;;;;;1.90;1.40;;;5.60;99.90;;;;;;5063503;28;20048;-79
2023/01/04 11:54:27;;;;;;;2.33;1.50;;;5.60;99.90;;;;;;5010053;28;20930;-78
2023/01/04 11:57:07;;;;;;;3.08;1.42;;;5.60;99.90;;;;;;5045284;28;20060;-79
2023/01/04 11:59:33;;;;;;;2.85;1.13;;;5.60;99.90;;;;;;5075896;28;20017;-78
2023/01/04 12:02:25;;;;;;;2.40;1.30;;;5.70;99.90;;;;;;5037217;28;20374;-79
2023/01/04 12:04:52;;;;;;;1.50;1.40;;;5.70;99.90;;;;;;5053435;28;20036;-78
2023/01/04 12:07:34;;;;;;;3.53;1.48;;;5.60;99.90;;;;;;5075950;28;20115;-79
2023/01/04 12:10:14;;;;;;;1.95;1.25;;;5.60;99.90;;;;;;5078004;28;20021;-78
2023/01/04 12:12:40;;;;;;;2.80;1.55;;;5.60;99.90;;;;;;5071740;28;20024;-78
2023/01/04 12:15:13;;;;;;;2.13;1.13;;;5.60;99.90;;;;;;5076911;28;20027;-78
2023/01/04 12:18:19;;;;;;;1.40;1.30;;;5.60;99.90;;;;;;5078883;28;20105;-78
2023/01/04 12:20:45;;;;;;;1.83;0.88;;;5.60;99.90;;;;;;5032294;28;20065;-78
2023/01/04 12:23:12;;;;;;;1.25;1.02;;;5.60;99.90;;;;;;5068423;28;20562;-77
2023/01/04 12:25:44;;;;;;;1.90;1.27;;;5.60;99.90;;;;;;5060026;28;20032;-79
2023/01/04 12:28:32;;;;;;;2.17;1.23;;;5.70;99.90;;;;;;5075979;28;20099;-77
2023/01/04 12:31:20;;;;;;;1.70;1.30;;;5.60;99.90;;;;;;5069673;28;20033;-78
2023/01/04 12:33:49;;;;;;;1.40;1.13;;;5.70;99.90;;;;;;5071551;28;20043;-78
2023/01/04 12:36:20;;;;;;;1.92;1.25;;;5.70;99.90;;;;;;5070867;28;20334;-78
2023/01/04 12:38:58;;;;;;;1.48;1.13;;;5.70;99.90;;;;;;5053254;28;20040;-79
2023/01/04 12:41:33;;;;;;;1.45;1.17;;;5.70;99.90;;;;;;5053630;28;20025;-80
2023/01/04 12:44:00;;;;;;;1.27;1.03;;;5.80;99.90;;;;;;5051901;28;20400;-78
2023/01/04 12:49:28;;;;;;;2.13;1.10;;;5.80;99.90;;;;;;5071989;28;20031;-78
2023/01/04 12:52:07;;;;;;;1.48;1.17;;;5.80;99.90;;;;;;5068017;28;20051;-78
2023/01/04 12:54:51;;;;;;;1.92;1.40;;;5.80;99.90;;;;;;5068474;28;20107;-78
2023/01/04 12:57:17;;;;;;;2.10;1.10;;;5.80;99.90;;;;;;5076592;28;20020;-78
2023/01/04 13:00:00;;;;;;;1.50;1.20;;;5.80;99.90;;;;;;5076544;28;20024;-79
2023/01/04 13:02:43;;;;;;;2.60;1.00;;;5.90;99.90;;;;;;5070223;28;20124;-78
2023/01/04 13:05:15;;;;;;;1.30;1.17;;;5.90;99.90;;;;;;5071054;28;20028;-80
2023/01/04 13:07:44;;;;;;;1.70;0.90;;;5.90;99.90;;;;;;5071094;28;20033;-78
2023/01/04 13:10:36;;;;;;;5.15;1.10;;;5.90;99.90;;;;;;5075676;28;20084;-78
2023/01/04 13:13:29;;;;;;;1.33;1.05;;;5.90;99.90;;;;;;5066313;28;20067;-79
2023/01/04 13:16:06;;;;;;;1.25;0.90;;;6.00;99.90;;;;;;5061984;28;20028;-78
2023/01/04 13:18:40;;;;;;;0.93;0.73;;;6.00;99.90;;;;;;5082864;28;20017;-79
2023/01/04 13:21:23;;;;;;;1.58;1.00;;;6.00;99.90;;;;;;5047355;28;20120;-78
2023/01/04 13:23:52;;;;;;;1.23;0.50;;;6.00;99.90;;;;;;5074706;28;20058;-78
2023/01/04 13:26:33;;;;;;;0.77;0.77;;;6.10;99.90;;;;;;5083701;28;20028;-79
2023/01/04 13:29:15;;;;;;;0.65;0.60;;;6.10;99.90;;;;;;5067764;28;20110;-80
2023/01/04 13:31:49;;;;;;;3.35;0.90;;;6.10;99.90;;;;;;5041906;28;20096;-78
2023/01/04 13:34:19;;;;;;;1.00;0.80;;;6.20;99.90;;;;;;5059536;28;20082;-78
2023/01/04 13:37:04;;;;;;;1.23;0.63;;;6.20;99.90;;;;;;5064494;28;20028;-78
2023/01/04 13:39:29;;;;;;;1.50;0.97;;;6.20;99.90;;;;;;5086795;28;20043;-78
2023/01/04 13:41:56;;;;;;;0.85;0.85;;;6.20;99.90;;;;;;5059838;28;20033;-77
2023/01/04 13:44:50;;;;;;;0.75;0.70;;;6.30;99.90;;;;;;5043711;28;20039;-76
2023/01/04 13:47:16;;;;;;;1.33;0.90;;;6.30;99.90;;;;;;5071861;28;20047;-79
2023/01/04 13:49:42;;;;;;;1.30;1.00;;;6.30;99.90;;;;;;5057957;28;20044;-79
2023/01/04 13:52:24;;;;;;;2.20;0.80;;;6.30;99.90;;;;;;5043575;28;20131;-77
2023/01/04 13:54:51;;;;;;;2.30;0.80;;;6.30;99.90;;;;;;5055113;28;20028;-79
2023/01/04 13:57:20;;;;;;;1.27;0.63;;;6.30;99.90;;;;;;5062658;28;20048;-78
2023/01/04 13:59:47;;;;;;;2.13;0.70;;;6.30;99.90;;;;;;5075479;28;20040;-79
2023/01/04 14:02:19;;;;;;;1.05;0.77;;;6.30;99.90;;;;;;5072927;28;20024;-80